Ocean City, NJ

12:54 AM EDT on March 28, 2015 (GMT -0400)
Ocean City NJ | | Change Station
CLOSE
Current Station
Personal Weather Station
Location: Ocean City, NJ
Elevation: 23 ft
Nearby Weather Stations

Elev 23 ft 39.28 °N, 74.57 °W | Updated 3 seconds ago

Overcast
Overcast
43.7 °F
Feels Like 38 °F
N
9.8
Wind Variable Wind from WNW
Gusts 12.3 mph

Today
High -- | Low -- °F
--% Chance of Precip.
Yesterday
High -- | Low -- °F
Precip. -- in
6:49 AM 7:18 PM
First Quarter, 59% visible
Pressure 29.78 in
Visibility 10.0 miles
Clouds Few 5000 ft
Overcast 8000 ft
Windchill 38 °F
Dew Point 29 °F
Humidity 55%
Rainfall 0.00 in
Snow Depth Not available.
UV 0 out of 12
Pollen 4.90 out of 12
Air Quality Not available.
Flu Activity Not available.
METAR KACY 280354Z 36009KT 10SM FEW050 OVC080 05/M01 A2978 RMK AO2 SLP083 T00501011 $

More Conditions Fewer Conditions

Pressure 29.78 in
Visibility 10.0 miles
Clouds Few 5000 ft
Overcast 8000 ft
Windchill 38 °F
Dew Point 29 °F
Humidity 55%
Rainfall 0.00 in
Snow Depth Not available.
UV 0 out of 12
Pollen 4.90 out of 12
Air Quality Not available.
Flu Activity Not available.
METAR KACY 280354Z 36009KT 10SM FEW050 OVC080 05/M01 A2978 RMK AO2 SLP083 T00501011 $

More Conditions Fewer Conditions

10-Day Weather Forecast

Almanac

Astronomy

Mar. 28, 2015 Rise Set
Actual Time
Civil Twilight
Nautical Twilight
Astronomical Twilight
Moon
Length of Visible Light
Length of Day
Tomorrow will be .
, % of the Moon is Illuminated

Today's Extremes

State Highs State Lows

Community

WunderPhotos

Upload Photos

1,808,928 photos uploaded!

WunderBlogs® & News

Nearby

Air Quality

  Air Quality AQ Index Pollutant
Not available.

Snow Depth

Station Depth Elevation

Earthquake Activity

City Distance Mag. Time & Date
Minimum magnitude displayed is 2.5.

Coastal Water Temperatures

Place Temperature

Stations

Nearby Weather Stations

Station Location Temp. Windchill Dew Point Humidity Wind Precip. Elev Updated Type